createdAt,value
2022-09-25T00:02:00.510Z,14.17
2022-09-25T00:07:02.977Z,14.39
2022-09-25T00:12:05.386Z,14.18
2022-09-25T00:17:07.945Z,14.00
2022-09-25T00:22:10.341Z,14.05
2022-09-25T00:27:13.167Z,14.47
2022-09-25T00:32:15.630Z,14.64
2022-09-25T00:37:18.046Z,14.63
2022-09-25T00:42:24.200Z,14.58
2022-09-25T00:47:32.472Z,14.72
2022-09-25T00:52:34.869Z,14.69
2022-09-25T00:57:40.591Z,14.10
2022-09-25T01:02:47.129Z,13.82
2022-09-25T01:07:50.886Z,13.66
2022-09-25T01:12:55.056Z,13.98
2022-09-25T01:18:05.945Z,14.36
2022-09-25T01:23:50.112Z,14.17
2022-09-25T01:29:07.587Z,14.11
2022-09-25T01:34:53.018Z,14.18
2022-09-25T01:40:18.482Z,14.43
2022-09-25T01:45:31.695Z,14.28
2022-09-25T01:50:46.832Z,13.82
2022-09-25T01:55:57.061Z,13.66
2022-09-25T02:01:05.773Z,13.84
2022-09-25T02:06:12.946Z,14.10
2022-09-25T02:11:15.741Z,14.15
2022-09-25T02:16:23.214Z,13.79
2022-09-25T02:22:10.131Z,13.61
2022-09-25T02:27:12.689Z,13.65
2022-09-25T02:32:21.685Z,13.98
2022-09-25T02:37:24.191Z,14.28
2022-09-25T02:42:35.091Z,14.37
2022-09-25T02:48:01.574Z,14.59
2022-09-25T02:53:18.723Z,14.68
2022-09-25T02:58:30.412Z,14.86
2022-09-25T03:03:33.860Z,14.84
2022-09-25T03:08:43.716Z,14.70
2022-09-25T03:13:55.325Z,14.97
2022-09-25T03:18:57.792Z,14.97
2022-09-25T03:24:03.413Z,14.97
2022-09-25T03:29:06.213Z,15.00
2022-09-25T03:34:09.493Z,14.50
2022-09-25T03:39:11.901Z,14.18
2022-09-25T03:44:14.260Z,14.04
2022-09-25T03:49:16.612Z,14.15
2022-09-25T03:54:18.959Z,14.49
2022-09-25T03:59:21.296Z,14.67
2022-09-25T04:04:23.917Z,14.73
2022-09-25T04:09:26.288Z,14.78
2022-09-25T04:14:28.873Z,14.95
2022-09-25T04:19:31.503Z,14.88
2022-09-25T04:24:49.118Z,15.02
2022-09-25T04:29:51.506Z,15.07
2022-09-25T04:34:53.907Z,15.09
2022-09-25T04:39:57.481Z,15.07
2022-09-25T04:44:59.531Z,14.92
2022-09-25T04:50:04.712Z,14.96
2022-09-25T04:55:07.104Z,15.04
2022-09-25T05:00:10.455Z,15.22
2022-09-25T05:05:14.288Z,15.29
2022-09-25T05:10:17.146Z,15.30
2022-09-25T05:15:19.789Z,15.34
2022-09-25T05:20:22.134Z,15.16
2022-09-25T05:25:25.876Z,15.05
2022-09-25T05:30:31.274Z,15.00
2022-09-25T05:35:35.550Z,14.93
2022-09-25T05:40:40.950Z,14.74
2022-09-25T05:45:43.329Z,14.73
2022-09-25T05:50:50.513Z,14.44
2022-09-25T05:55:54.285Z,14.23
2022-09-25T06:01:01.164Z,14.30
2022-09-25T06:06:03.746Z,14.44
2022-09-25T06:11:06.494Z,14.51
2022-09-25T06:16:18.589Z,14.65
2022-09-25T06:21:21.527Z,14.26
2022-09-25T06:26:25.289Z,14.08
2022-09-25T06:31:27.897Z,13.95
2022-09-25T06:36:30.476Z,13.89
2022-09-25T06:41:32.858Z,14.19
2022-09-25T06:46:38.199Z,14.43
2022-09-25T06:51:40.613Z,14.05
2022-09-25T06:56:43.039Z,13.61
2022-09-25T07:01:45.459Z,13.65
2022-09-25T07:06:48.359Z,13.91
2022-09-25T07:11:53.028Z,13.81
2022-09-25T07:16:55.359Z,13.77
2022-09-25T07:21:58.138Z,14.32
2022-09-25T07:27:00.707Z,14.58
2022-09-25T07:32:04.758Z,14.81
2022-09-25T07:37:07.930Z,15.08
2022-09-25T07:42:10.921Z,15.29
2022-09-25T07:47:15.278Z,15.44
2022-09-25T07:52:17.640Z,15.39
2022-09-25T07:57:20.648Z,15.11
2022-09-25T08:02:23.124Z,15.38
2022-09-25T08:07:25.546Z,15.53
2022-09-25T08:12:28.057Z,15.74
2022-09-25T08:17:31.320Z,15.57
2022-09-25T08:22:34.011Z,15.30
2022-09-25T08:27:41.112Z,15.35
2022-09-25T08:32:43.493Z,15.08
2022-09-25T08:37:48.682Z,15.08
2022-09-25T08:42:53.957Z,15.71
2022-09-25T08:48:16.559Z,16.07
2022-09-25T08:53:25.283Z,16.33
2022-09-25T08:58:32.415Z,16.47
2022-09-25T09:03:49.524Z,16.54
2022-09-25T09:09:23.803Z,16.83
2022-09-25T09:14:31.088Z,16.32
2022-09-25T09:19:33.671Z,16.26
2022-09-25T09:24:54.028Z,16.34
2022-09-25T09:30:19.156Z,16.82
2022-09-25T09:35:43.653Z,16.91
2022-09-25T09:41:27.795Z,16.32
2022-09-25T09:46:40.421Z,16.24
2022-09-25T09:51:55.026Z,16.07
2022-09-25T09:57:00.587Z,15.78
2022-09-25T10:02:17.880Z,15.90
2022-09-25T10:07:27.076Z,16.55
2022-09-25T10:12:32.976Z,16.98
2022-09-25T10:17:38.173Z,17.88
2022-09-25T10:22:45.811Z,18.43
2022-09-25T10:27:49.658Z,18.51
2022-09-25T10:33:11.684Z,18.11
2022-09-25T10:38:28.449Z,17.56
2022-09-25T10:43:31.146Z,17.35
2022-09-25T10:48:56.336Z,17.27
2022-09-25T10:54:10.747Z,17.13
2022-09-25T10:59:24.168Z,17.13
2022-09-25T11:04:34.989Z,16.96
2022-09-25T11:09:44.910Z,16.91
2022-09-25T11:15:01.577Z,16.81
2022-09-25T11:20:16.650Z,16.91
2022-09-25T11:25:33.306Z,17.18
2022-09-25T11:31:02.211Z,17.12
2022-09-25T11:36:20.208Z,17.23
2022-09-25T11:41:57.849Z,17.20
2022-09-25T11:47:21.775Z,16.80
2022-09-25T11:52:37.285Z,16.22
2022-09-25T11:58:10.149Z,16.02
2022-09-25T12:03:24.394Z,16.23
2022-09-25T12:08:45.664Z,16.26
2022-09-25T12:14:12.081Z,16.26
2022-09-25T12:19:48.707Z,15.97
2022-09-25T12:24:57.224Z,16.37
2022-09-25T12:30:06.838Z,16.61
2022-09-25T12:35:24.956Z,17.50
2022-09-25T12:40:39.201Z,18.23
2022-09-25T12:45:47.294Z,18.06
2022-09-25T12:51:05.752Z,18.17
2022-09-25T12:56:44.409Z,17.90
2022-09-25T13:02:17.641Z,18.17
2022-09-25T13:07:49.357Z,18.44
2022-09-25T13:12:55.780Z,18.24
2022-09-25T13:17:59.169Z,18.40
2022-09-25T13:23:13.968Z,18.58
2022-09-25T13:28:26.479Z,18.58
2022-09-25T13:33:30.997Z,18.63
2022-09-25T13:38:57.718Z,19.05
2022-09-25T13:44:40.714Z,21.33
2022-09-25T13:50:04.838Z,21.87
2022-09-25T13:55:22.204Z,22.51
2022-09-25T14:00:38.667Z,24.13
2022-09-25T14:05:43.198Z,23.28
2022-09-25T14:10:48.727Z,22.07
2022-09-25T14:15:54.909Z,21.72
2022-09-25T14:21:01.547Z,21.17
2022-09-25T14:26:23.029Z,20.08
2022-09-25T14:31:52.663Z,19.91
2022-09-25T14:37:10.243Z,19.75
2022-09-25T14:42:41.044Z,19.63
2022-09-25T14:47:47.451Z,18.73
2022-09-25T14:52:54.380Z,18.98
2022-09-25T14:58:01.417Z,19.44
2022-09-25T15:03:04.667Z,19.55
2022-09-25T15:08:24.209Z,19.23
2022-09-25T15:13:31.208Z,19.12
2022-09-25T15:18:37.976Z,18.93
2022-09-25T15:23:44.086Z,18.93
2022-09-25T15:28:47.044Z,18.95
2022-09-25T15:34:12.327Z,18.74
2022-09-25T15:39:18.068Z,18.54
2022-09-25T15:44:25.246Z,18.26
2022-09-25T15:49:43.140Z,18.19
2022-09-25T15:54:48.518Z,18.02
2022-09-25T16:00:11.756Z,18.00
2022-09-25T16:05:20.328Z,17.82
2022-09-25T16:10:22.780Z,17.46
2022-09-25T16:15:26.821Z,17.18
2022-09-25T16:20:37.675Z,17.26
2022-09-25T16:25:44.695Z,17.33
2022-09-25T16:31:08.274Z,17.35
2022-09-25T16:36:18.720Z,17.36
2022-09-25T16:41:26.823Z,17.21
2022-09-25T16:46:31.050Z,16.98
2022-09-25T16:51:34.762Z,17.07
2022-09-25T16:56:37.716Z,17.09
2022-09-25T17:01:40.615Z,17.23
2022-09-25T17:06:45.846Z,17.14
2022-09-25T17:11:50.300Z,16.94
2022-09-25T17:16:54.419Z,17.29
2022-09-25T17:21:57.126Z,17.44
2022-09-25T17:26:59.585Z,17.06
2022-09-25T17:32:02.216Z,16.93
2022-09-25T17:37:04.677Z,16.69
2022-09-25T17:42:07.516Z,16.45
2022-09-25T17:47:11.492Z,16.27
2022-09-25T17:52:16.790Z,16.34
2022-09-25T17:57:19.198Z,16.59
2022-09-25T18:02:21.586Z,16.53
2022-09-25T18:07:24.030Z,16.44
2022-09-25T18:12:26.651Z,16.62
2022-09-25T18:17:29.008Z,16.48
2022-09-25T18:22:31.406Z,16.36
2022-09-25T18:27:34.681Z,16.22
2022-09-25T18:32:38.164Z,16.37
2022-09-25T18:37:42.503Z,16.47
2022-09-25T18:42:46.082Z,16.36
2022-09-25T18:47:48.776Z,16.39
2022-09-25T18:52:51.295Z,16.40
2022-09-25T18:57:53.692Z,16.48
2022-09-25T19:02:56.226Z,16.34
2022-09-25T19:07:59.059Z,16.31
2022-09-25T19:13:01.747Z,16.28
2022-09-25T19:18:04.587Z,16.22
2022-09-25T19:23:08.204Z,16.14
2022-09-25T19:28:10.811Z,16.10
2022-09-25T19:33:13.486Z,15.92
2022-09-25T19:38:15.861Z,15.37
2022-09-25T19:43:18.909Z,15.32
2022-09-25T19:48:22.778Z,15.26
2022-09-25T19:53:25.274Z,14.96
2022-09-25T19:58:27.920Z,15.20
2022-09-25T20:03:30.670Z,15.11
2022-09-25T20:08:33.626Z,15.32
2022-09-25T20:13:36.712Z,15.46
2022-09-25T20:18:39.217Z,15.51
2022-09-25T20:23:41.751Z,15.54
2022-09-25T20:28:44.761Z,15.37
2022-09-25T20:33:47.781Z,15.56
2022-09-25T20:38:51.984Z,15.07
2022-09-25T20:43:56.612Z,14.61
2022-09-25T20:48:59.803Z,14.81
2022-09-25T20:54:07.217Z,15.10
2022-09-25T20:59:11.437Z,15.37
2022-09-25T21:04:18.128Z,15.34
2022-09-25T21:09:23.140Z,14.92
2022-09-25T21:14:28.461Z,14.55
2022-09-25T21:19:31.877Z,14.33
2022-09-25T21:24:35.174Z,14.28
2022-09-25T21:29:37.520Z,14.55
2022-09-25T21:34:40.223Z,14.81
2022-09-25T21:39:42.701Z,14.38
2022-09-25T21:44:46.024Z,14.23
2022-09-25T21:49:48.976Z,13.72
2022-09-25T21:54:51.748Z,14.19
2022-09-25T21:59:54.207Z,13.71
2022-09-25T22:04:56.641Z,13.42
2022-09-25T22:09:59.124Z,13.15
2022-09-25T22:15:01.628Z,13.12
2022-09-25T22:20:05.617Z,12.89
2022-09-25T22:25:08.626Z,12.96
2022-09-25T22:30:11.738Z,12.78
2022-09-25T22:35:14.251Z,12.72
2022-09-25T22:40:16.903Z,13.27
2022-09-25T22:45:19.454Z,13.03
2022-09-25T22:50:21.973Z,12.94
2022-09-25T22:55:26.208Z,12.82
2022-09-25T23:00:28.909Z,12.64
2022-09-25T23:05:35.050Z,12.57
2022-09-25T23:11:02.688Z,12.60
2022-09-25T23:16:08.569Z,12.68
2022-09-25T23:21:11.255Z,13.05
2022-09-25T23:26:13.721Z,13.36
2022-09-25T23:31:17.613Z,13.46
2022-09-25T23:36:22.841Z,13.06
2022-09-25T23:41:30.173Z,12.89
2022-09-25T23:46:35.151Z,12.96
2022-09-25T23:51:37.887Z,13.17
2022-09-25T23:56:41.510Z,13.37
